createdAt,value
2019-05-10T00:02:00.691Z,100163.02
2019-05-10T00:04:51.144Z,100162.45
2019-05-10T00:07:41.123Z,100169.30
2019-05-10T00:10:12.487Z,100173.48
2019-05-10T00:12:55.089Z,100174.47
2019-05-10T00:15:30.607Z,100178.66
2019-05-10T00:18:03.514Z,100175.95
2019-05-10T00:20:35.774Z,100178.11
2019-05-10T00:23:08.080Z,100183.65
2019-05-10T00:25:40.363Z,100186.77
2019-05-10T00:28:12.628Z,100185.84
2019-05-10T00:30:45.225Z,100178.81
2019-05-10T00:33:17.817Z,100181.12
2019-05-10T00:35:50.183Z,100185.70
2019-05-10T00:38:22.514Z,100188.92
2019-05-10T00:40:54.784Z,100186.30
2019-05-10T00:43:27.365Z,100190.31
2019-05-10T00:45:59.908Z,100188.98
2019-05-10T00:48:32.297Z,100186.11
2019-05-10T00:51:05.795Z,100185.41
2019-05-10T00:53:38.417Z,100181.39
2019-05-10T00:56:10.774Z,100189.61
2019-05-10T00:58:43.355Z,100187.16
2019-05-10T01:01:18.694Z,100190.38
2019-05-10T01:03:49.704Z,100192.72
2019-05-10T01:06:22.985Z,100191.73
2019-05-10T01:08:55.513Z,100186.66
2019-05-10T01:11:27.831Z,100195.23
2019-05-10T01:14:00.124Z,100197.94
2019-05-10T01:16:32.444Z,100203.11
2019-05-10T01:19:05.001Z,100201.94
2019-05-10T01:21:37.458Z,100205.27
2019-05-10T01:24:09.804Z,100200.86
2019-05-10T01:26:42.332Z,100201.92
2019-05-10T01:29:14.908Z,100213.36
2019-05-10T01:31:47.436Z,100214.94
2019-05-10T01:34:20.976Z,100214.99
2019-05-10T01:36:53.258Z,100209.84
2019-05-10T01:39:25.579Z,100210.09
2019-05-10T01:41:57.854Z,100215.88
2019-05-10T01:44:30.158Z,100215.05
2019-05-10T01:47:02.479Z,100218.09
2019-05-10T01:49:35.019Z,100222.52
2019-05-10T01:52:07.329Z,100217.48
2019-05-10T01:54:39.629Z,100221.13
2019-05-10T01:57:12.222Z,100226.07
2019-05-10T01:59:45.694Z,100225.26
2019-05-10T02:02:18.025Z,100224.66
2019-05-10T02:04:51.449Z,100232.96
2019-05-10T02:07:23.802Z,100222.59
2019-05-10T02:09:56.058Z,100226.17
2019-05-10T02:12:28.384Z,100228.08
2019-05-10T02:15:00.634Z,100236.63
2019-05-10T02:17:33.267Z,100228.16
2019-05-10T02:20:05.754Z,100231.48
2019-05-10T02:22:38.089Z,100233.72
2019-05-10T02:25:10.360Z,100238.22
2019-05-10T02:27:42.958Z,100232.96
2019-05-10T02:30:15.512Z,100240.84
2019-05-10T02:32:48.075Z,100238.77
2019-05-10T02:35:22.222Z,100235.58
2019-05-10T02:37:54.816Z,100240.66
2019-05-10T02:40:27.086Z,100238.91
2019-05-10T02:42:59.434Z,100240.34
2019-05-10T02:45:31.726Z,100248.97
2019-05-10T02:48:04.036Z,100251.48
2019-05-10T02:50:36.597Z,100262.11
2019-05-10T02:53:09.045Z,100263.27
2019-05-10T02:55:42.084Z,100263.50
2019-05-10T02:58:15.588Z,100265.83
2019-05-10T03:00:50.013Z,100273.86
2019-05-10T03:03:25.721Z,100273.50
2019-05-10T03:05:58.657Z,100274.07
2019-05-10T03:08:46.504Z,100276.47
2019-05-10T03:11:21.032Z,100281.91
2019-05-10T03:13:54.260Z,100282.95
2019-05-10T03:16:26.502Z,100284.28
2019-05-10T03:18:59.531Z,100290.59
2019-05-10T03:21:36.568Z,100297.72
2019-05-10T03:24:09.146Z,100296.70
2019-05-10T03:26:50.840Z,100304.22
2019-05-10T03:29:17.480Z,100299.27
2019-05-10T03:31:51.014Z,100306.21
2019-05-10T03:34:23.562Z,100303.83
2019-05-10T03:36:56.153Z,100304.45
2019-05-10T03:39:29.506Z,100307.45
2019-05-10T03:42:01.913Z,100309.03
2019-05-10T03:44:34.241Z,100309.50
2019-05-10T03:47:06.767Z,100311.56
2019-05-10T03:49:39.114Z,100305.52
2019-05-10T03:52:11.371Z,100311.75
2019-05-10T03:54:43.688Z,100309.94
2019-05-10T03:57:16.343Z,100313.29
2019-05-10T03:59:48.673Z,100313.50
2019-05-10T04:02:20.927Z,100311.86
2019-05-10T04:04:53.265Z,100313.69
2019-05-10T04:07:25.829Z,100319.62
2019-05-10T04:09:58.169Z,100318.80
2019-05-10T04:12:30.477Z,100313.02
2019-05-10T04:15:02.726Z,100313.55
2019-05-10T04:17:35.234Z,100318.44
2019-05-10T04:20:07.579Z,100317.53
2019-05-10T04:22:39.898Z,100320.50
2019-05-10T04:25:12.375Z,100324.36
2019-05-10T04:27:44.705Z,100332.44
2019-05-10T04:30:17.261Z,100331.39
2019-05-10T04:32:49.686Z,100336.77
2019-05-10T04:35:21.944Z,100337.43
2019-05-10T04:37:54.787Z,100342.28
2019-05-10T04:40:27.064Z,100338.63
2019-05-10T04:43:00.197Z,100337.65
2019-05-10T04:45:32.492Z,100340.97
2019-05-10T04:48:04.996Z,100344.39
2019-05-10T04:50:37.271Z,100350.53
2019-05-10T04:53:09.603Z,100356.22
2019-05-10T04:55:41.875Z,100360.48
2019-05-10T04:58:14.249Z,100363.98
2019-05-10T05:00:46.506Z,100364.86
2019-05-10T05:03:19.043Z,100367.83
2019-05-10T05:05:51.576Z,100368.69
2019-05-10T05:08:24.193Z,100372.19
2019-05-10T05:10:56.712Z,100375.34
2019-05-10T05:13:29.595Z,100378.14
2019-05-10T05:16:01.864Z,100378.94
2019-05-10T05:18:34.161Z,100382.13
2019-05-10T05:21:06.428Z,100385.69
2019-05-10T05:23:39.596Z,100386.79
2019-05-10T05:26:12.152Z,100382.64
2019-05-10T05:28:44.727Z,100382.52
2019-05-10T05:31:17.260Z,100383.84
2019-05-10T05:33:50.584Z,100386.02
2019-05-10T05:36:22.855Z,100382.33
2019-05-10T05:38:55.202Z,100394.96
2019-05-10T05:41:31.715Z,100397.70
2019-05-10T05:44:02.041Z,100401.44
2019-05-10T05:46:34.578Z,100400.84
2019-05-10T05:49:06.919Z,100405.03
2019-05-10T05:51:39.164Z,100411.25
2019-05-10T05:54:14.992Z,100414.76
2019-05-10T05:56:50.490Z,100425.02
2019-05-10T05:59:23.763Z,100420.07
2019-05-10T06:02:00.482Z,100425.29
2019-05-10T06:04:30.261Z,100423.27
2019-05-10T06:07:02.545Z,100431.41
2019-05-10T06:09:37.918Z,100433.72
2019-05-10T06:12:12.620Z,100436.82
2019-05-10T06:14:49.482Z,100440.97
2019-05-10T06:17:17.187Z,100434.31
2019-05-10T06:19:49.928Z,100438.15
2019-05-10T06:22:22.221Z,100444.48
2019-05-10T06:24:54.603Z,100445.10
2019-05-10T06:27:26.903Z,100445.66
2019-05-10T06:29:59.276Z,100444.23
2019-05-10T06:32:32.143Z,100445.74
2019-05-10T06:35:04.831Z,100447.44
2019-05-10T06:37:37.181Z,100449.86
2019-05-10T06:40:10.185Z,100450.77
2019-05-10T06:42:43.364Z,100454.66
2019-05-10T06:45:17.382Z,100456.79
2019-05-10T06:47:53.180Z,100463.07
2019-05-10T06:50:29.830Z,100459.88
2019-05-10T06:53:06.658Z,100466.42
2019-05-10T06:55:58.613Z,100471.55
2019-05-10T06:58:36.313Z,100471.86
2019-05-10T07:01:05.550Z,100471.36
2019-05-10T07:06:40.313Z,100475.20
2019-05-10T07:09:12.880Z,100474.80
2019-05-10T07:11:45.538Z,100482.35
2019-05-10T07:14:18.094Z,100485.80
2019-05-10T07:16:50.399Z,100483.48
2019-05-10T07:19:22.716Z,100482.22
2019-05-10T07:21:55.026Z,100483.34
2019-05-10T07:24:27.628Z,100479.84
2019-05-10T07:27:02.368Z,100486.97
2019-05-10T07:29:42.177Z,100497.87
2019-05-10T07:32:09.219Z,100498.77
2019-05-10T07:34:41.552Z,100505.37
2019-05-10T07:37:13.844Z,100505.39
2019-05-10T07:39:46.229Z,100503.48
2019-05-10T07:42:18.483Z,100511.47
2019-05-10T07:44:50.840Z,100505.25
2019-05-10T07:47:29.893Z,100509.63
2019-05-10T07:49:57.960Z,100511.05
2019-05-10T07:52:36.285Z,100516.95
2019-05-10T07:55:10.112Z,100518.53
2019-05-10T07:57:40.724Z,100515.37
2019-05-10T08:00:19.271Z,100524.15
2019-05-10T08:03:06.066Z,100524.58
2019-05-10T08:05:26.099Z,100530.74
2019-05-10T08:07:58.997Z,100536.14
2019-05-10T08:10:32.753Z,100547.59
2019-05-10T08:13:05.040Z,100563.44
2019-05-10T08:15:38.383Z,100565.50
2019-05-10T08:18:15.245Z,100564.95
2019-05-10T08:20:53.536Z,100570.09
2019-05-10T08:23:23.905Z,100585.04
2019-05-10T08:25:54.112Z,100584.80
2019-05-10T08:28:28.090Z,100585.86
2019-05-10T08:31:02.472Z,100585.38
2019-05-10T08:33:34.376Z,100586.52
2019-05-10T08:36:06.677Z,100591.86
2019-05-10T08:38:39.707Z,100594.00
2019-05-10T08:41:18.141Z,100601.55
2019-05-10T08:43:48.064Z,100603.00
2019-05-10T08:46:29.218Z,100612.27
2019-05-10T08:48:54.824Z,100613.36
2019-05-10T08:51:27.207Z,100620.09
2019-05-10T08:54:01.769Z,100624.75
2019-05-10T08:56:33.965Z,100625.83
2019-05-10T08:59:09.590Z,100631.57
2019-05-10T09:01:46.477Z,100626.45
2019-05-10T09:04:14.734Z,100635.39
2019-05-10T09:06:47.447Z,100639.94
2019-05-10T09:09:22.784Z,100644.83
2019-05-10T09:11:57.844Z,100647.13
2019-05-10T09:14:32.549Z,100654.37
2019-05-10T09:17:04.612Z,100660.12
2019-05-10T09:19:41.930Z,100659.14
2019-05-10T09:22:12.534Z,100664.09
2019-05-10T09:24:48.582Z,100669.52
2019-05-10T09:27:18.855Z,100671.31
2019-05-10T09:29:53.000Z,100673.75
2019-05-10T09:32:28.933Z,100684.36
2019-05-10T09:34:59.887Z,100681.55
2019-05-10T09:37:33.151Z,100687.02
2019-05-10T09:40:09.893Z,100691.63
2019-05-10T09:42:43.627Z,100702.00
2019-05-10T09:45:15.885Z,100702.73
2019-05-10T09:47:48.138Z,100713.97
2019-05-10T09:50:22.948Z,100723.55
2019-05-10T09:52:55.398Z,100723.25
2019-05-10T09:55:28.152Z,100723.97
2019-05-10T09:58:00.890Z,100727.08
2019-05-10T10:00:37.951Z,100728.66
2019-05-10T10:03:12.564Z,100731.75
2019-05-10T10:05:43.923Z,100724.64
2019-05-10T10:08:17.629Z,100730.73
2019-05-10T10:10:50.640Z,100732.91
2019-05-10T10:13:38.904Z,100738.25
2019-05-10T10:15:58.158Z,100741.07
2019-05-10T10:18:30.860Z,100741.11
2019-05-10T10:21:03.234Z,100740.42
2019-05-10T10:23:37.793Z,100749.41
2019-05-10T10:26:12.818Z,100750.64
2019-05-10T10:28:49.822Z,100757.48
2019-05-10T10:31:29.750Z,100755.26
2019-05-10T10:34:02.643Z,100757.61
2019-05-10T10:36:30.250Z,100760.86
2019-05-10T10:39:03.058Z,100762.73
2019-05-10T10:41:35.701Z,100761.90
2019-05-10T10:44:08.503Z,100760.47
2019-05-10T10:46:41.177Z,100774.27
2019-05-10T10:49:14.840Z,100783.34
2019-05-10T10:51:47.752Z,100783.42
2019-05-10T10:54:22.381Z,100791.56
2019-05-10T10:56:59.349Z,100790.63
2019-05-10T10:59:29.238Z,100791.97
2019-05-10T11:02:27.886Z,100794.59
2019-05-10T11:04:40.565Z,100800.76
2019-05-10T11:07:11.329Z,100806.34
2019-05-10T11:09:43.972Z,100810.80
2019-05-10T11:12:22.707Z,100809.72
2019-05-10T11:14:50.250Z,100810.28
2019-05-10T11:17:22.513Z,100810.63
2019-05-10T11:19:54.823Z,100817.01
2019-05-10T11:22:27.573Z,100818.71
2019-05-10T11:25:08.634Z,100815.39
2019-05-10T11:27:34.306Z,100817.19
2019-05-10T11:30:12.183Z,100825.36
2019-05-10T11:32:44.590Z,100826.40
2019-05-10T11:35:27.007Z,100819.41
2019-05-10T11:37:51.316Z,100828.62
2019-05-10T11:40:30.895Z,100827.02
2019-05-10T11:42:57.645Z,100835.38
2019-05-10T11:45:34.276Z,100826.36
2019-05-10T11:48:04.302Z,100836.54
2019-05-10T11:50:36.664Z,100841.26
2019-05-10T11:53:13.275Z,100839.95
2019-05-10T11:55:43.610Z,100844.30
2019-05-10T11:58:16.153Z,100841.45
2019-05-10T12:00:55.707Z,100849.42
2019-05-10T12:03:23.545Z,100851.31
2019-05-10T12:06:04.692Z,100854.39
2019-05-10T12:08:30.546Z,100865.88
2019-05-10T12:11:12.430Z,100867.28
2019-05-10T12:13:37.421Z,100864.18
2019-05-10T12:16:12.353Z,100869.36
2019-05-10T12:19:00.857Z,100881.59
2019-05-10T12:21:18.066Z,100876.23
2019-05-10T12:26:33.846Z,100881.43
2019-05-10T12:29:02.564Z,100885.09
2019-05-10T12:31:32.481Z,100883.68
2019-05-10T12:34:09.113Z,100890.75
2019-05-10T12:36:41.194Z,100889.85
2019-05-10T12:39:13.648Z,100892.62
2019-05-10T12:41:49.653Z,100906.08
2019-05-10T12:44:20.222Z,100906.32
2019-05-10T12:46:54.142Z,100919.70
2019-05-10T12:49:26.562Z,100918.82
2019-05-10T12:51:58.866Z,100915.70
2019-05-10T12:54:33.275Z,100914.58
2019-05-10T12:57:05.546Z,100916.48
2019-05-10T12:59:38.425Z,100917.97
2019-05-10T13:02:12.974Z,100924.05
2019-05-10T13:04:47.084Z,100921.97
2019-05-10T13:07:19.947Z,100931.63
2019-05-10T13:10:01.475Z,100931.97
2019-05-10T13:12:26.358Z,100930.62
2019-05-10T13:14:58.770Z,100932.14
2019-05-10T13:17:31.759Z,100930.46
2019-05-10T13:20:05.097Z,100938.50
2019-05-10T13:22:39.272Z,100944.22
2019-05-10T13:25:11.878Z,100953.73
2019-05-10T13:27:44.228Z,100947.52
2019-05-10T13:30:27.444Z,100954.78
2019-05-10T13:32:58.567Z,100958.50
2019-05-10T13:35:29.686Z,100962.74
2019-05-10T13:38:03.984Z,100963.54
2019-05-10T13:40:38.905Z,100965.57
2019-05-10T13:43:10.683Z,100967.57
2019-05-10T13:45:42.979Z,100969.91
2019-05-10T13:48:16.480Z,100966.22
2019-05-10T13:50:49.113Z,100973.59
2019-05-10T13:53:23.273Z,100975.23
2019-05-10T13:55:55.652Z,100978.36
2019-05-10T13:58:28.222Z,100984.39
2019-05-10T14:01:00.505Z,100986.07
2019-05-10T14:03:43.662Z,100986.37
2019-05-10T14:06:06.909Z,100989.19
2019-05-10T14:08:42.988Z,100990.70
2019-05-10T14:11:13.529Z,100990.80
2019-05-10T14:13:45.882Z,100993.56
2019-05-10T14:16:19.534Z,101007.25
2019-05-10T14:18:52.191Z,101013.54
2019-05-10T14:21:25.034Z,101009.34
2019-05-10T14:23:57.395Z,101006.65
2019-05-10T14:26:30.026Z,101019.87
2019-05-10T14:29:02.717Z,101013.75
2019-05-10T14:31:35.004Z,101018.67
2019-05-10T14:34:15.708Z,101022.08
2019-05-10T14:36:43.584Z,101030.40
2019-05-10T14:39:15.922Z,101032.80
2019-05-10T14:41:50.975Z,101035.07
2019-05-10T14:44:22.264Z,101036.55
2019-05-10T14:46:54.866Z,101039.67
2019-05-10T14:49:28.641Z,101042.30
2019-05-10T14:52:01.112Z,101046.85
2019-05-10T14:54:43.103Z,101052.28
2019-05-10T14:57:08.027Z,101057.70
2019-05-10T14:59:40.839Z,101057.61
2019-05-10T15:02:16.865Z,101052.59
2019-05-10T15:04:47.895Z,101063.05
2019-05-10T15:07:20.189Z,101063.84
2019-05-10T15:09:54.228Z,101060.86
2019-05-10T15:12:26.687Z,101059.63
2019-05-10T15:14:58.986Z,101063.50
2019-05-10T15:17:31.304Z,101066.09
2019-05-10T15:20:03.581Z,101069.98
2019-05-10T15:22:35.951Z,101068.87
2019-05-10T15:25:09.080Z,101073.41
2019-05-10T15:27:41.762Z,101075.53
2019-05-10T15:30:14.908Z,101074.63
2019-05-10T15:32:47.242Z,101075.91
2019-05-10T15:35:19.534Z,101079.30
2019-05-10T15:37:51.876Z,101087.03
2019-05-10T15:40:24.927Z,101092.59
2019-05-10T15:42:57.196Z,101092.69
2019-05-10T15:45:29.530Z,101092.62
2019-05-10T15:48:02.903Z,101093.93
2019-05-10T15:53:10.284Z,101096.83
2019-05-10T15:55:43.318Z,101102.27
2019-05-10T15:58:16.344Z,101105.08
2019-05-10T15:59:23.467Z,101096.32
2019-05-10T16:00:48.974Z,101112.05
2019-05-10T16:03:21.410Z,101111.04
2019-05-10T16:06:00.925Z,101106.28
2019-05-10T16:08:30.869Z,101109.55
2019-05-10T16:11:04.058Z,101115.95
2019-05-10T16:13:36.526Z,101114.40
2019-05-10T16:16:08.740Z,101119.52
2019-05-10T16:18:41.845Z,101123.13
2019-05-10T16:21:15.229Z,101131.02
2019-05-10T16:23:48.378Z,101129.19
2019-05-10T16:26:22.790Z,101130.13
2019-05-10T16:29:02.037Z,101132.16
2019-05-10T16:31:30.196Z,101127.33
2019-05-10T16:34:02.494Z,101128.27
2019-05-10T16:36:34.819Z,101129.48
2019-05-10T16:39:08.250Z,101132.78
2019-05-10T16:41:40.529Z,101135.12
2019-05-10T16:44:12.790Z,101144.22
2019-05-10T16:46:45.994Z,101142.42
2019-05-10T16:49:18.522Z,101151.80
2019-05-10T16:51:50.861Z,101146.56
2019-05-10T16:54:27.168Z,101147.40
2019-05-10T16:56:59.770Z,101141.70
2019-05-10T16:59:35.174Z,101150.59
2019-05-10T17:02:06.900Z,101149.28
2019-05-10T17:04:39.828Z,101155.59
2019-05-10T17:07:12.865Z,101155.87
2019-05-10T17:09:49.494Z,101159.76
2019-05-10T17:12:22.024Z,101159.31
2019-05-10T17:14:59.771Z,101159.55
2019-05-10T17:17:31.363Z,101164.19
2019-05-10T17:20:07.315Z,101163.11
2019-05-10T17:22:37.907Z,101165.02
2019-05-10T17:25:10.290Z,101171.33
2019-05-10T17:27:42.615Z,101170.80
2019-05-10T17:30:15.126Z,101169.11
2019-05-10T17:32:47.872Z,101170.27
2019-05-10T17:35:20.395Z,101170.75
2019-05-10T17:37:53.257Z,101166.00
2019-05-10T17:40:25.513Z,101164.15
2019-05-10T17:42:57.800Z,101172.30
2019-05-10T17:45:34.690Z,101172.50
2019-05-10T17:48:08.567Z,101175.59
2019-05-10T17:50:38.382Z,101176.09
2019-05-10T17:53:11.030Z,101171.28
2019-05-10T17:55:43.389Z,101177.52
2019-05-10T17:58:17.762Z,101178.95
2019-05-10T18:00:50.089Z,101174.67
2019-05-10T18:03:22.343Z,101175.38
2019-05-10T18:05:55.267Z,101178.20
2019-05-10T18:08:27.562Z,101179.00
2019-05-10T18:11:04.168Z,101185.19
2019-05-10T18:13:35.685Z,101182.13
2019-05-10T18:16:09.555Z,101187.94
2019-05-10T18:18:47.174Z,101186.63
2019-05-10T18:21:22.082Z,101185.91
2019-05-10T18:23:52.787Z,101185.77
2019-05-10T18:26:25.237Z,101188.61
2019-05-10T18:28:57.504Z,101197.84
2019-05-10T18:31:30.201Z,101199.45
2019-05-10T18:34:02.477Z,101199.92
2019-05-10T18:36:51.141Z,101196.64
2019-05-10T18:39:15.686Z,101200.98
2019-05-10T18:41:46.682Z,101204.45
2019-05-10T18:44:18.596Z,101207.81
2019-05-10T18:46:50.850Z,101206.02
2019-05-10T18:49:23.195Z,101209.61
2019-05-10T18:52:03.359Z,101209.27
2019-05-10T18:54:29.764Z,101212.55
2019-05-10T18:57:04.480Z,101211.13
2019-05-10T18:59:39.921Z,101210.77
2019-05-10T19:02:17.792Z,101211.02
2019-05-10T19:04:52.061Z,101217.01
2019-05-10T19:07:21.678Z,101216.98
2019-05-10T19:09:54.047Z,101223.30
2019-05-10T19:12:26.849Z,101224.77
2019-05-10T19:15:02.379Z,101229.48
2019-05-10T19:17:33.962Z,101229.95
2019-05-10T19:20:09.540Z,101233.47
2019-05-10T19:22:42.709Z,101237.69
2019-05-10T19:25:16.308Z,101245.62
2019-05-10T19:27:50.808Z,101245.17
2019-05-10T19:30:23.141Z,101247.80
2019-05-10T19:32:56.652Z,101260.09
2019-05-10T19:35:35.138Z,101256.00
2019-05-10T19:38:04.091Z,101254.59
2019-05-10T19:40:36.334Z,101259.35
2019-05-10T19:43:09.050Z,101259.38
2019-05-10T19:45:41.323Z,101262.04
2019-05-10T19:48:13.633Z,101268.59
2019-05-10T19:50:46.265Z,101276.59
2019-05-10T19:53:19.383Z,101273.77
2019-05-10T19:55:57.206Z,101273.27
2019-05-10T19:58:32.342Z,101280.14
2019-05-10T20:01:01.187Z,101280.48
2019-05-10T20:03:33.601Z,101280.97
2019-05-10T20:06:05.959Z,101279.41
2019-05-10T20:08:38.293Z,101286.55
2019-05-10T20:11:10.643Z,101281.46
2019-05-10T20:13:42.979Z,101282.15
2019-05-10T20:16:16.057Z,101284.18
2019-05-10T20:18:48.398Z,101287.56
2019-05-10T20:21:20.778Z,101288.95
2019-05-10T20:23:53.128Z,101290.55
2019-05-10T20:26:25.664Z,101286.83
2019-05-10T20:28:58.023Z,101289.12
2019-05-10T20:31:30.821Z,101287.67
2019-05-10T20:34:03.307Z,101285.44
2019-05-10T20:36:35.745Z,101285.63
2019-05-10T20:39:09.290Z,101285.81
2019-05-10T20:41:41.741Z,101284.91
2019-05-10T20:44:15.476Z,101286.21
2019-05-10T20:46:48.242Z,101291.42
2019-05-10T20:49:20.953Z,101291.77
2019-05-10T20:51:53.623Z,101297.64
2019-05-10T20:54:30.672Z,101295.04
2019-05-10T20:57:03.338Z,101296.34
2019-05-10T20:59:36.058Z,101302.28
2019-05-10T21:02:08.476Z,101303.58
2019-05-10T21:04:41.796Z,101295.11
2019-05-10T21:07:14.398Z,101299.02
2019-05-10T21:09:47.227Z,101298.22
2019-05-10T21:12:19.652Z,101306.05
2019-05-10T21:14:52.406Z,101308.80
2019-05-10T21:17:26.020Z,101306.72
2019-05-10T21:19:58.419Z,101315.69
2019-05-10T21:22:30.852Z,101313.76
2019-05-10T21:25:03.194Z,101311.64
2019-05-10T21:27:36.600Z,101316.20
2019-05-10T21:30:09.560Z,101321.43
2019-05-10T21:32:42.264Z,101324.73
2019-05-10T21:35:17.150Z,101322.44
2019-05-10T21:37:50.039Z,101320.66
2019-05-10T21:40:22.639Z,101321.47
2019-05-10T21:42:55.297Z,101329.30
2019-05-10T21:45:27.698Z,101331.42
2019-05-10T21:48:00.044Z,101341.20
2019-05-10T21:50:32.732Z,101345.44
2019-05-10T21:53:05.465Z,101348.22
2019-05-10T21:55:37.883Z,101354.23
2019-05-10T21:58:10.817Z,101360.93
2019-05-10T22:00:45.021Z,101356.38
2019-05-10T22:03:17.437Z,101356.70
2019-05-10T22:05:49.846Z,101354.91
2019-05-10T22:08:22.193Z,101347.42
2019-05-10T22:10:54.580Z,101349.22
2019-05-10T22:13:28.448Z,101349.40
2019-05-10T22:16:01.167Z,101341.08
2019-05-10T22:18:34.043Z,101336.53
2019-05-10T22:21:06.417Z,101326.47
2019-05-10T22:23:38.816Z,101325.97
2019-05-10T22:26:11.127Z,101328.58
2019-05-10T22:28:43.558Z,101330.88
2019-05-10T22:31:15.884Z,101332.33
2019-05-10T22:33:48.305Z,101332.16
2019-05-10T22:36:20.803Z,101339.81
2019-05-10T22:39:06.525Z,101341.77
2019-05-10T22:41:28.488Z,101332.19
2019-05-10T22:44:01.401Z,101336.75
2019-05-10T22:46:33.635Z,101330.88
2019-05-10T22:49:05.936Z,101330.40
2019-05-10T22:51:38.203Z,101323.73
2019-05-10T22:54:10.540Z,101325.20
2019-05-10T22:56:43.378Z,101330.08
2019-05-10T22:59:15.658Z,101325.70
2019-05-10T23:01:48.194Z,101328.79
2019-05-10T23:04:20.454Z,101332.35
2019-05-10T23:06:52.699Z,101335.60
2019-05-10T23:09:25.371Z,101339.84
2019-05-10T23:11:57.640Z,101340.80
2019-05-10T23:14:30.228Z,101346.48
2019-05-10T23:17:02.756Z,101345.84
2019-05-10T23:19:35.063Z,101341.11
2019-05-10T23:22:07.353Z,101344.20
2019-05-10T23:24:40.087Z,101349.09
2019-05-10T23:27:12.315Z,101349.58
2019-05-10T23:29:44.692Z,101347.11
2019-05-10T23:32:17.005Z,101352.49
2019-05-10T23:34:49.284Z,101349.89
2019-05-10T23:37:22.127Z,101350.54
2019-05-10T23:39:54.720Z,101348.08
2019-05-10T23:42:26.966Z,101346.28
2019-05-10T23:45:00.138Z,101350.67
2019-05-10T23:47:32.439Z,101351.64
2019-05-10T23:50:04.845Z,101348.71
2019-05-10T23:52:37.340Z,101347.91
2019-05-10T23:55:09.690Z,101352.94
2019-05-10T23:57:41.960Z,101347.25
